sensor_id;sensor_type;location;lat;lon;timestamp;P1;durP1;ratioP1;P2;durP2;ratioP2
35634;SDS011;21757;43.610;1.440;2023-04-24T00:00:08;8.27;;;3.33;;
35634;SDS011;21757;43.610;1.440;2023-04-24T00:02:35;7.13;;;3.28;;
35634;SDS011;21757;43.610;1.440;2023-04-24T00:05:04;9.52;;;3.85;;
35634;SDS011;21757;43.610;1.440;2023-04-24T00:07:31;11.32;;;3.75;;
35634;SDS011;21757;43.610;1.440;2023-04-24T00:09:57;12.57;;;3.50;;
35634;SDS011;21757;43.610;1.440;2023-04-24T00:12:23;7.82;;;3.25;;
35634;SDS011;21757;43.610;1.440;2023-04-24T00:14:49;10.07;;;3.40;;
35634;SDS011;21757;43.610;1.440;2023-04-24T00:17:15;10.32;;;3.63;;
35634;SDS011;21757;43.610;1.440;2023-04-24T00:19:40;8.63;;;4.03;;
35634;SDS011;21757;43.610;1.440;2023-04-24T00:22:06;11.52;;;4.90;;
35634;SDS011;21757;43.610;1.440;2023-04-24T00:24:32;11.10;;;5.20;;
35634;SDS011;21757;43.610;1.440;2023-04-24T00:26:58;12.10;;;6.13;;
35634;SDS011;21757;43.610;1.440;2023-04-24T00:29:25;12.30;;;5.45;;
35634;SDS011;21757;43.610;1.440;2023-04-24T00:31:54;9.57;;;5.65;;
35634;SDS011;21757;43.610;1.440;2023-04-24T00:34:20;14.68;;;5.20;;
35634;SDS011;21757;43.610;1.440;2023-04-24T00:36:46;7.72;;;4.68;;
35634;SDS011;21757;43.610;1.440;2023-04-24T00:39:17;10.38;;;4.85;;
35634;SDS011;21757;43.610;1.440;2023-04-24T00:41:43;12.35;;;4.60;;
35634;SDS011;21757;43.610;1.440;2023-04-24T00:44:10;14.40;;;4.85;;
35634;SDS011;21757;43.610;1.440;2023-04-24T00:46:36;15.13;;;7.00;;
35634;SDS011;21757;43.610;1.440;2023-04-24T00:49:02;16.05;;;10.07;;
35634;SDS011;21757;43.610;1.440;2023-04-24T00:51:29;17.23;;;10.75;;
35634;SDS011;21757;43.610;1.440;2023-04-24T00:53:55;23.85;;;12.10;;
35634;SDS011;21757;43.610;1.440;2023-04-24T00:56:21;18.83;;;12.73;;
35634;SDS011;21757;43.610;1.440;2023-04-24T00:58:48;17.35;;;11.13;;
35634;SDS011;21757;43.610;1.440;2023-04-24T01:01:14;20.60;;;11.85;;
35634;SDS011;21757;43.610;1.440;2023-04-24T01:03:40;22.23;;;10.90;;
35634;SDS011;21757;43.610;1.440;2023-04-24T01:06:06;13.02;;;8.88;;
35634;SDS011;21757;43.610;1.440;2023-04-24T01:08:32;13.75;;;8.00;;
35634;SDS011;21757;43.610;1.440;2023-04-24T01:10:59;19.08;;;8.60;;
35634;SDS011;21757;43.610;1.440;2023-04-24T01:13:28;13.45;;;7.65;;
35634;SDS011;21757;43.610;1.440;2023-04-24T01:15:54;11.95;;;6.53;;
35634;SDS011;21757;43.610;1.440;2023-04-24T01:18:20;12.82;;;6.22;;
35634;SDS011;21757;43.610;1.440;2023-04-24T01:20:46;12.45;;;5.47;;
35634;SDS011;21757;43.610;1.440;2023-04-24T01:23:13;15.00;;;5.55;;
35634;SDS011;21757;43.610;1.440;2023-04-24T01:25:40;12.98;;;4.53;;
35634;SDS011;21757;43.610;1.440;2023-04-24T01:28:05;9.65;;;4.43;;
35634;SDS011;21757;43.610;1.440;2023-04-24T01:30:31;13.35;;;4.65;;
35634;SDS011;21757;43.610;1.440;2023-04-24T01:32:57;8.77;;;4.07;;
35634;SDS011;21757;43.610;1.440;2023-04-24T01:35:24;14.02;;;3.60;;
35634;SDS011;21757;43.610;1.440;2023-04-24T01:37:50;8.13;;;3.47;;
35634;SDS011;21757;43.610;1.440;2023-04-24T01:40:16;8.23;;;3.92;;
35634;SDS011;21757;43.610;1.440;2023-04-24T01:42:41;10.27;;;3.78;;
35634;SDS011;21757;43.610;1.440;2023-04-24T01:45:07;7.85;;;2.90;;
35634;SDS011;21757;43.610;1.440;2023-04-24T01:47:36;11.35;;;3.17;;
35634;SDS011;21757;43.610;1.440;2023-04-24T01:50:03;9.35;;;2.97;;
35634;SDS011;21757;43.610;1.440;2023-04-24T01:52:29;9.60;;;3.13;;
35634;SDS011;21757;43.610;1.440;2023-04-24T01:54:56;9.02;;;2.97;;
35634;SDS011;21757;43.610;1.440;2023-04-24T01:57:24;10.23;;;3.13;;
35634;SDS011;21757;43.610;1.440;2023-04-24T01:59:51;9.73;;;2.88;;
35634;SDS011;21757;43.610;1.440;2023-04-24T02:02:16;7.03;;;2.83;;
35634;SDS011;21757;43.610;1.440;2023-04-24T02:04:42;10.38;;;2.75;;
35634;SDS011;21757;43.610;1.440;2023-04-24T02:07:08;7.05;;;2.35;;
35634;SDS011;21757;43.610;1.440;2023-04-24T02:09:33;9.93;;;2.80;;
35634;SDS011;21757;43.610;1.440;2023-04-24T02:11:59;7.90;;;2.35;;
35634;SDS011;21757;43.610;1.440;2023-04-24T02:14:25;8.50;;;2.38;;
35634;SDS011;21757;43.610;1.440;2023-04-24T02:16:51;12.38;;;2.30;;
35634;SDS011;21757;43.610;1.440;2023-04-24T02:19:18;8.35;;;2.17;;
35634;SDS011;21757;43.610;1.440;2023-04-24T02:21:44;8.27;;;2.60;;
35634;SDS011;21757;43.610;1.440;2023-04-24T02:24:10;8.05;;;2.70;;
35634;SDS011;21757;43.610;1.440;2023-04-24T02:26:35;10.70;;;2.20;;
35634;SDS011;21757;43.610;1.440;2023-04-24T02:29:01;4.72;;;2.33;;
35634;SDS011;21757;43.610;1.440;2023-04-24T02:31:27;9.25;;;2.42;;
35634;SDS011;21757;43.610;1.440;2023-04-24T02:33:52;8.10;;;2.25;;
35634;SDS011;21757;43.610;1.440;2023-04-24T02:36:18;8.68;;;2.80;;
35634;SDS011;21757;43.610;1.440;2023-04-24T02:38:44;9.43;;;2.50;;
35634;SDS011;21757;43.610;1.440;2023-04-24T02:41:10;9.65;;;2.53;;
35634;SDS011;21757;43.610;1.440;2023-04-24T02:43:36;6.50;;;2.10;;
35634;SDS011;21757;43.610;1.440;2023-04-24T02:46:02;6.82;;;2.03;;
35634;SDS011;21757;43.610;1.440;2023-04-24T02:48:27;6.80;;;2.35;;
35634;SDS011;21757;43.610;1.440;2023-04-24T02:50:53;6.28;;;2.20;;
35634;SDS011;21757;43.610;1.440;2023-04-24T02:53:19;7.78;;;2.10;;
35634;SDS011;21757;43.610;1.440;2023-04-24T02:55:45;4.38;;;2.05;;
35634;SDS011;21757;43.610;1.440;2023-04-24T02:58:11;7.07;;;1.95;;
35634;SDS011;21757;43.610;1.440;2023-04-24T03:00:38;7.63;;;2.08;;
35634;SDS011;21757;43.610;1.440;2023-04-24T03:03:04;7.22;;;1.90;;
35634;SDS011;21757;43.610;1.440;2023-04-24T03:05:30;6.82;;;2.17;;
35634;SDS011;21757;43.610;1.440;2023-04-24T03:07:56;7.50;;;2.10;;
35634;SDS011;21757;43.610;1.440;2023-04-24T03:10:21;5.15;;;2.08;;
35634;SDS011;21757;43.610;1.440;2023-04-24T03:12:47;8.27;;;2.03;;
35634;SDS011;21757;43.610;1.440;2023-04-24T03:15:13;7.68;;;1.70;;
35634;SDS011;21757;43.610;1.440;2023-04-24T03:17:39;7.78;;;2.05;;
35634;SDS011;21757;43.610;1.440;2023-04-24T03:20:05;5.57;;;2.33;;
35634;SDS011;21757;43.610;1.440;2023-04-24T03:22:33;9.50;;;2.60;;
35634;SDS011;21757;43.610;1.440;2023-04-24T03:24:59;9.02;;;2.42;;
35634;SDS011;21757;43.610;1.440;2023-04-24T03:27:25;6.43;;;1.60;;
35634;SDS011;21757;43.610;1.440;2023-04-24T03:29:51;9.23;;;2.10;;
35634;SDS011;21757;43.610;1.440;2023-04-24T03:32:20;9.18;;;2.00;;
35634;SDS011;21757;43.610;1.440;2023-04-24T03:34:47;8.30;;;1.90;;
35634;SDS011;21757;43.610;1.440;2023-04-24T03:37:16;7.60;;;2.03;;
35634;SDS011;21757;43.610;1.440;2023-04-24T03:39:42;9.65;;;2.00;;
35634;SDS011;21757;43.610;1.440;2023-04-24T03:42:08;8.57;;;2.45;;
35634;SDS011;21757;43.610;1.440;2023-04-24T03:44:34;4.63;;;2.00;;
35634;SDS011;21757;43.610;1.440;2023-04-24T03:47:00;9.13;;;2.05;;
35634;SDS011;21757;43.610;1.440;2023-04-24T03:49:25;13.98;;;2.58;;
35634;SDS011;21757;43.610;1.440;2023-04-24T03:51:51;10.20;;;2.00;;
35634;SDS011;21757;43.610;1.440;2023-04-24T03:54:17;10.18;;;2.10;;
35634;SDS011;21757;43.610;1.440;2023-04-24T03:56:44;8.68;;;2.17;;
35634;SDS011;21757;43.610;1.440;2023-04-24T03:59:09;8.27;;;2.25;;
35634;SDS011;21757;43.610;1.440;2023-04-24T04:01:35;10.43;;;2.30;;
35634;SDS011;21757;43.610;1.440;2023-04-24T04:04:03;7.95;;;2.30;;
35634;SDS011;21757;43.610;1.440;2023-04-24T04:06:29;7.38;;;1.92;;
35634;SDS011;21757;43.610;1.440;2023-04-24T04:08:56;8.55;;;2.20;;
35634;SDS011;21757;43.610;1.440;2023-04-24T04:11:22;11.25;;;2.25;;
35634;SDS011;21757;43.610;1.440;2023-04-24T04:13:48;10.30;;;1.85;;
35634;SDS011;21757;43.610;1.440;2023-04-24T04:16:14;6.82;;;2.10;;
35634;SDS011;21757;43.610;1.440;2023-04-24T04:18:42;9.15;;;2.15;;
35634;SDS011;21757;43.610;1.440;2023-04-24T04:21:08;8.25;;;2.25;;
35634;SDS011;21757;43.610;1.440;2023-04-24T04:23:33;6.72;;;1.83;;
35634;SDS011;21757;43.610;1.440;2023-04-24T04:25:59;8.00;;;2.15;;
35634;SDS011;21757;43.610;1.440;2023-04-24T04:28:25;10.90;;;2.40;;
35634;SDS011;21757;43.610;1.440;2023-04-24T04:30:51;5.72;;;1.98;;
35634;SDS011;21757;43.610;1.440;2023-04-24T04:33:20;7.50;;;2.15;;
35634;SDS011;21757;43.610;1.440;2023-04-24T04:35:47;9.48;;;2.28;;
35634;SDS011;21757;43.610;1.440;2023-04-24T04:38:21;13.13;;;2.30;;
35634;SDS011;21757;43.610;1.440;2023-04-24T04:40:47;9.10;;;1.98;;
35634;SDS011;21757;43.610;1.440;2023-04-24T04:43:13;7.13;;;2.20;;
35634;SDS011;21757;43.610;1.440;2023-04-24T04:45:41;7.70;;;2.20;;
35634;SDS011;21757;43.610;1.440;2023-04-24T04:48:08;8.52;;;2.20;;
35634;SDS011;21757;43.610;1.440;2023-04-24T04:50:34;7.85;;;2.25;;
35634;SDS011;21757;43.610;1.440;2023-04-24T04:53:01;9.73;;;2.47;;
35634;SDS011;21757;43.610;1.440;2023-04-24T04:55:26;9.70;;;2.30;;
35634;SDS011;21757;43.610;1.440;2023-04-24T04:57:52;11.48;;;2.50;;
35634;SDS011;21757;43.610;1.440;2023-04-24T05:00:18;11.55;;;2.85;;
35634;SDS011;21757;43.610;1.440;2023-04-24T05:02:44;9.38;;;2.42;;
35634;SDS011;21757;43.610;1.440;2023-04-24T05:05:10;12.68;;;2.50;;
35634;SDS011;21757;43.610;1.440;2023-04-24T05:07:35;8.85;;;2.33;;
35634;SDS011;21757;43.610;1.440;2023-04-24T05:10:01;9.82;;;2.35;;
35634;SDS011;21757;43.610;1.440;2023-04-24T05:12:27;12.13;;;2.65;;
35634;SDS011;21757;43.610;1.440;2023-04-24T05:14:53;9.82;;;2.30;;
35634;SDS011;21757;43.610;1.440;2023-04-24T05:17:19;12.38;;;2.72;;
35634;SDS011;21757;43.610;1.440;2023-04-24T05:19:44;10.15;;;2.28;;
35634;SDS011;21757;43.610;1.440;2023-04-24T05:22:11;9.15;;;2.15;;
35634;SDS011;21757;43.610;1.440;2023-04-24T05:24:37;10.52;;;2.65;;
35634;SDS011;21757;43.610;1.440;2023-04-24T05:27:03;9.43;;;2.15;;
35634;SDS011;21757;43.610;1.440;2023-04-24T05:29:32;11.07;;;2.30;;
35634;SDS011;21757;43.610;1.440;2023-04-24T05:31:58;11.10;;;2.17;;
35634;SDS011;21757;43.610;1.440;2023-04-24T05:34:25;10.10;;;2.55;;
35634;SDS011;21757;43.610;1.440;2023-04-24T05:36:51;13.88;;;2.47;;
35634;SDS011;21757;43.610;1.440;2023-04-24T05:39:17;4.57;;;1.95;;
35634;SDS011;21757;43.610;1.440;2023-04-24T05:41:44;7.72;;;2.25;;
35634;SDS011;21757;43.610;1.440;2023-04-24T05:44:10;11.07;;;2.80;;
35634;SDS011;21757;43.610;1.440;2023-04-24T05:46:35;10.88;;;2.60;;
35634;SDS011;21757;43.610;1.440;2023-04-24T05:49:01;9.25;;;2.40;;
35634;SDS011;21757;43.610;1.440;2023-04-24T05:51:27;13.52;;;2.65;;
35634;SDS011;21757;43.610;1.440;2023-04-24T05:53:53;11.65;;;2.53;;
35634;SDS011;21757;43.610;1.440;2023-04-24T05:56:19;8.80;;;2.40;;
35634;SDS011;21757;43.610;1.440;2023-04-24T05:58:45;13.25;;;2.50;;
35634;SDS011;21757;43.610;1.440;2023-04-24T06:01:12;9.23;;;2.67;;
35634;SDS011;21757;43.610;1.440;2023-04-24T06:03:40;10.15;;;2.45;;
35634;SDS011;21757;43.610;1.440;2023-04-24T06:06:06;13.75;;;2.55;;
35634;SDS011;21757;43.610;1.440;2023-04-24T06:08:32;11.15;;;2.55;;
35634;SDS011;21757;43.610;1.440;2023-04-24T06:10:58;15.85;;;2.60;;
35634;SDS011;21757;43.610;1.440;2023-04-24T06:13:24;12.02;;;2.50;;
35634;SDS011;21757;43.610;1.440;2023-04-24T06:15:50;7.50;;;2.35;;
35634;SDS011;21757;43.610;1.440;2023-04-24T06:18:16;12.25;;;2.75;;
35634;SDS011;21757;43.610;1.440;2023-04-24T06:20:42;9.77;;;2.10;;
35634;SDS011;21757;43.610;1.440;2023-04-24T06:23:08;8.88;;;2.55;;
35634;SDS011;21757;43.610;1.440;2023-04-24T06:25:34;9.82;;;2.45;;
35634;SDS011;21757;43.610;1.440;2023-04-24T06:28:00;7.70;;;2.30;;
35634;SDS011;21757;43.610;1.440;2023-04-24T06:30:26;11.55;;;2.40;;
35634;SDS011;21757;43.610;1.440;2023-04-24T06:32:53;8.43;;;2.08;;
35634;SDS011;21757;43.610;1.440;2023-04-24T06:35:18;15.13;;;2.80;;
35634;SDS011;21757;43.610;1.440;2023-04-24T06:37:44;10.40;;;2.35;;
35634;SDS011;21757;43.610;1.440;2023-04-24T06:40:10;10.35;;;2.30;;
35634;SDS011;21757;43.610;1.440;2023-04-24T06:42:36;11.68;;;2.80;;
35634;SDS011;21757;43.610;1.440;2023-04-24T06:45:02;13.73;;;2.60;;
35634;SDS011;21757;43.610;1.440;2023-04-24T06:47:28;13.18;;;2.72;;
35634;SDS011;21757;43.610;1.440;2023-04-24T06:49:54;11.15;;;3.03;;
35634;SDS011;21757;43.610;1.440;2023-04-24T06:52:20;11.68;;;2.53;;
35634;SDS011;21757;43.610;1.440;2023-04-24T06:54:46;11.23;;;2.97;;
35634;SDS011;21757;43.610;1.440;2023-04-24T06:57:12;11.98;;;2.80;;
35634;SDS011;21757;43.610;1.440;2023-04-24T06:59:37;10.73;;;2.30;;
35634;SDS011;21757;43.610;1.440;2023-04-24T07:02:03;10.45;;;3.33;;
35634;SDS011;21757;43.610;1.440;2023-04-24T07:04:29;10.43;;;2.40;;
35634;SDS011;21757;43.610;1.440;2023-04-24T07:06:56;9.38;;;2.58;;
35634;SDS011;21757;43.610;1.440;2023-04-24T07:09:23;16.23;;;3.25;;
35634;SDS011;21757;43.610;1.440;2023-04-24T07:11:53;9.17;;;2.57;;
35634;SDS011;21757;43.610;1.440;2023-04-24T07:14:21;6.32;;;1.85;;
35634;SDS011;21757;43.610;1.440;2023-04-24T07:16:47;10.82;;;2.40;;
35634;SDS011;21757;43.610;1.440;2023-04-24T07:19:13;10.40;;;2.58;;
35634;SDS011;21757;43.610;1.440;2023-04-24T07:21:39;10.25;;;2.72;;
35634;SDS011;21757;43.610;1.440;2023-04-24T07:24:06;9.90;;;2.83;;
35634;SDS011;21757;43.610;1.440;2023-04-24T07:26:35;5.05;;;2.08;;
35634;SDS011;21757;43.610;1.440;2023-04-24T07:29:02;8.57;;;2.80;;
35634;SDS011;21757;43.610;1.440;2023-04-24T07:31:28;7.25;;;2.22;;
35634;SDS011;21757;43.610;1.440;2023-04-24T07:33:54;8.15;;;2.47;;
35634;SDS011;21757;43.610;1.440;2023-04-24T07:36:22;6.07;;;2.28;;
35634;SDS011;21757;43.610;1.440;2023-04-24T07:38:49;7.45;;;1.90;;
35634;SDS011;21757;43.610;1.440;2023-04-24T07:41:15;9.65;;;2.30;;
35634;SDS011;21757;43.610;1.440;2023-04-24T07:43:41;3.33;;;1.58;;
35634;SDS011;21757;43.610;1.440;2023-04-24T07:46:07;6.15;;;1.52;;
35634;SDS011;21757;43.610;1.440;2023-04-24T07:48:33;4.75;;;1.60;;
35634;SDS011;21757;43.610;1.440;2023-04-24T07:51:00;8.70;;;1.92;;
35634;SDS011;21757;43.610;1.440;2023-04-24T07:53:25;6.25;;;1.67;;
35634;SDS011;21757;43.610;1.440;2023-04-24T07:55:51;5.05;;;1.25;;
35634;SDS011;21757;43.610;1.440;2023-04-24T07:58:17;7.38;;;1.52;;
35634;SDS011;21757;43.610;1.440;2023-04-24T08:00:43;3.72;;;1.30;;
35634;SDS011;21757;43.610;1.440;2023-04-24T08:03:08;6.07;;;1.42;;
35634;SDS011;21757;43.610;1.440;2023-04-24T08:05:34;5.50;;;1.55;;
35634;SDS011;21757;43.610;1.440;2023-04-24T08:08:00;4.65;;;1.40;;
35634;SDS011;21757;43.610;1.440;2023-04-24T08:10:25;6.40;;;1.75;;
35634;SDS011;21757;43.610;1.440;2023-04-24T08:12:51;4.68;;;1.10;;
35634;SDS011;21757;43.610;1.440;2023-04-24T08:15:17;6.63;;;1.30;;
35634;SDS011;21757;43.610;1.440;2023-04-24T08:17:43;4.65;;;1.20;;
35634;SDS011;21757;43.610;1.440;2023-04-24T08:20:09;4.57;;;1.25;;
35634;SDS011;21757;43.610;1.440;2023-04-24T08:22:42;6.13;;;1.40;;
35634;SDS011;21757;43.610;1.440;2023-04-24T08:25:08;6.38;;;1.80;;
35634;SDS011;21757;43.610;1.440;2023-04-24T08:27:35;5.32;;;1.20;;
35634;SDS011;21757;43.610;1.440;2023-04-24T08:30:02;7.72;;;1.48;;
35634;SDS011;21757;43.610;1.440;2023-04-24T08:32:28;6.18;;;1.80;;
35634;SDS011;21757;43.610;1.440;2023-04-24T08:34:55;9.48;;;1.60;;
35634;SDS011;21757;43.610;1.440;2023-04-24T08:37:21;11.55;;;2.63;;
35634;SDS011;21757;43.610;1.440;2023-04-24T08:39:48;8.90;;;1.60;;
35634;SDS011;21757;43.610;1.440;2023-04-24T08:42:15;6.85;;;1.40;;
35634;SDS011;21757;43.610;1.440;2023-04-24T08:44:43;6.25;;;1.30;;
35634;SDS011;21757;43.610;1.440;2023-04-24T08:47:09;6.13;;;1.60;;
35634;SDS011;21757;43.610;1.440;2023-04-24T08:49:36;5.10;;;1.10;;
35634;SDS011;21757;43.610;1.440;2023-04-24T08:52:03;5.28;;;1.38;;
35634;SDS011;21757;43.610;1.440;2023-04-24T08:54:29;8.63;;;1.75;;
35634;SDS011;21757;43.610;1.440;2023-04-24T08:57:00;7.28;;;1.20;;
35634;SDS011;21757;43.610;1.440;2023-04-24T08:59:26;8.13;;;1.75;;
35634;SDS011;21757;43.610;1.440;2023-04-24T09:01:53;6.07;;;1.33;;
35634;SDS011;21757;43.610;1.440;2023-04-24T09:04:20;5.53;;;1.60;;
35634;SDS011;21757;43.610;1.440;2023-04-24T09:06:49;14.52;;;2.90;;
35634;SDS011;21757;43.610;1.440;2023-04-24T09:09:22;7.32;;;2.03;;
35634;SDS011;21757;43.610;1.440;2023-04-24T09:11:52;4.82;;;1.13;;
35634;SDS011;21757;43.610;1.440;2023-04-24T09:14:20;7.82;;;1.70;;
35634;SDS011;21757;43.610;1.440;2023-04-24T09:16:48;5.00;;;1.55;;
35634;SDS011;21757;43.610;1.440;2023-04-24T09:19:13;5.45;;;1.45;;
35634;SDS011;21757;43.610;1.440;2023-04-24T09:21:45;3.95;;;1.13;;
35634;SDS011;21757;43.610;1.440;2023-04-24T09:24:19;3.25;;;0.82;;
35634;SDS011;21757;43.610;1.440;2023-04-24T09:26:48;4.65;;;1.00;;
35634;SDS011;21757;43.610;1.440;2023-04-24T09:29:17;5.45;;;1.00;;
35634;SDS011;21757;43.610;1.440;2023-04-24T09:31:44;5.50;;;1.17;;
35634;SDS011;21757;43.610;1.440;2023-04-24T09:34:11;7.65;;;0.90;;
35634;SDS011;21757;43.610;1.440;2023-04-24T09:36:38;4.35;;;1.60;;
35634;SDS011;21757;43.610;1.440;2023-04-24T09:39:06;6.63;;;1.35;;
35634;SDS011;21757;43.610;1.440;2023-04-24T09:41:35;3.28;;;1.00;;
35634;SDS011;21757;43.610;1.440;2023-04-24T09:44:12;6.13;;;1.30;;
35634;SDS011;21757;43.610;1.440;2023-04-24T09:46:41;2.58;;;1.10;;
35634;SDS011;21757;43.610;1.440;2023-04-24T09:49:09;4.45;;;1.20;;
35634;SDS011;21757;43.610;1.440;2023-04-24T09:51:37;5.60;;;1.42;;
35634;SDS011;21757;43.610;1.440;2023-04-24T09:54:04;6.18;;;2.03;;
35634;SDS011;21757;43.610;1.440;2023-04-24T09:56:37;5.50;;;1.70;;
35634;SDS011;21757;43.610;1.440;2023-04-24T09:59:08;4.00;;;1.35;;
35634;SDS011;21757;43.610;1.440;2023-04-24T10:01:34;6.93;;;1.70;;
35634;SDS011;21757;43.610;1.440;2023-04-24T10:04:00;4.43;;;1.38;;
35634;SDS011;21757;43.610;1.440;2023-04-24T10:06:33;4.18;;;1.23;;
35634;SDS011;21757;43.610;1.440;2023-04-24T10:09:00;7.45;;;1.23;;
35634;SDS011;21757;43.610;1.440;2023-04-24T10:11:29;4.32;;;1.30;;
35634;SDS011;21757;43.610;1.440;2023-04-24T10:13:55;6.20;;;1.27;;
35634;SDS011;21757;43.610;1.440;2023-04-24T10:16:22;6.32;;;1.20;;
35634;SDS011;21757;43.610;1.440;2023-04-24T10:18:49;6.00;;;1.40;;
35634;SDS011;21757;43.610;1.440;2023-04-24T10:21:19;5.55;;;1.50;;
35634;SDS011;21757;43.610;1.440;2023-04-24T10:23:45;5.68;;;1.15;;
35634;SDS011;21757;43.610;1.440;2023-04-24T10:26:14;5.20;;;1.52;;
35634;SDS011;21757;43.610;1.440;2023-04-24T10:28:46;6.40;;;1.75;;
35634;SDS011;21757;43.610;1.440;2023-04-24T10:31:15;5.82;;;1.35;;
35634;SDS011;21757;43.610;1.440;2023-04-24T10:33:42;3.70;;;1.55;;
35634;SDS011;21757;43.610;1.440;2023-04-24T10:36:11;5.55;;;1.70;;
35634;SDS011;21757;43.610;1.440;2023-04-24T10:38:39;5.05;;;1.90;;
35634;SDS011;21757;43.610;1.440;2023-04-24T10:41:07;8.13;;;1.55;;
35634;SDS011;21757;43.610;1.440;2023-04-24T10:43:41;7.72;;;1.50;;
35634;SDS011;21757;43.610;1.440;2023-04-24T10:46:08;4.65;;;1.45;;
35634;SDS011;21757;43.610;1.440;2023-04-24T10:48:35;4.20;;;1.45;;
35634;SDS011;21757;43.610;1.440;2023-04-24T10:51:10;8.93;;;3.85;;
35634;SDS011;21757;43.610;1.440;2023-04-24T10:56:07;4.35;;;2.10;;
35634;SDS011;21757;43.610;1.440;2023-04-24T10:58:44;5.40;;;1.60;;
35634;SDS011;21757;43.610;1.440;2023-04-24T11:01:28;7.00;;;1.88;;
35634;SDS011;21757;43.610;1.440;2023-04-24T11:04:01;4.75;;;1.40;;
35634;SDS011;21757;43.610;1.440;2023-04-24T11:06:35;4.68;;;1.08;;
35634;SDS011;21757;43.610;1.440;2023-04-24T11:09:05;5.90;;;1.45;;
35634;SDS011;21757;43.610;1.440;2023-04-24T11:11:37;5.60;;;1.60;;
35634;SDS011;21757;43.610;1.440;2023-04-24T11:14:09;5.07;;;1.83;;
35634;SDS011;21757;43.610;1.440;2023-04-24T11:34:54;7.22;;;2.38;;
35634;SDS011;21757;43.610;1.440;2023-04-24T11:37:29;2.78;;;1.42;;
35634;SDS011;21757;43.610;1.440;2023-04-24T11:40:06;3.67;;;1.20;;
35634;SDS011;21757;43.610;1.440;2023-04-24T11:42:34;5.55;;;2.22;;
35634;SDS011;21757;43.610;1.440;2023-04-24T11:45:17;4.67;;;1.73;;
35634;SDS011;21757;43.610;1.440;2023-04-24T11:47:53;7.15;;;1.88;;
35634;SDS011;21757;43.610;1.440;2023-04-24T11:50:21;5.00;;;1.80;;
35634;SDS011;21757;43.610;1.440;2023-04-24T11:52:48;7.43;;;1.70;;
35634;SDS011;21757;43.610;1.440;2023-04-24T11:57:44;4.57;;;1.25;;
35634;SDS011;21757;43.610;1.440;2023-04-24T12:00:21;4.20;;;1.33;;
35634;SDS011;21757;43.610;1.440;2023-04-24T12:02:49;4.90;;;1.40;;
35634;SDS011;21757;43.610;1.440;2023-04-24T12:05:19;6.80;;;1.20;;
35634;SDS011;21757;43.610;1.440;2023-04-24T12:07:50;8.32;;;1.65;;
35634;SDS011;21757;43.610;1.440;2023-04-24T12:10:20;4.45;;;1.38;;
35634;SDS011;21757;43.610;1.440;2023-04-24T12:12:47;4.75;;;1.13;;
35634;SDS011;21757;43.610;1.440;2023-04-24T12:15:15;3.88;;;1.08;;
35634;SDS011;21757;43.610;1.440;2023-04-24T12:17:41;3.05;;;1.00;;
35634;SDS011;21757;43.610;1.440;2023-04-24T12:20:08;5.38;;;1.25;;
35634;SDS011;21757;43.610;1.440;2023-04-24T12:25:16;6.53;;;1.63;;
35634;SDS011;21757;43.610;1.440;2023-04-24T12:27:43;4.97;;;1.40;;
35634;SDS011;21757;43.610;1.440;2023-04-24T12:30:16;6.72;;;1.58;;
35634;SDS011;21757;43.610;1.440;2023-04-24T12:32:44;5.93;;;1.30;;
35634;SDS011;21757;43.610;1.440;2023-04-24T12:35:11;7.10;;;2.95;;
35634;SDS011;21757;43.610;1.440;2023-04-24T12:37:37;3.55;;;1.50;;
35634;SDS011;21757;43.610;1.440;2023-04-24T12:42:44;4.93;;;1.38;;
35634;SDS011;21757;43.610;1.440;2023-04-24T12:45:11;10.13;;;5.97;;
35634;SDS011;21757;43.610;1.440;2023-04-24T12:47:38;3.63;;;1.48;;
35634;SDS011;21757;43.610;1.440;2023-04-24T12:50:05;7.25;;;3.83;;
35634;SDS011;21757;43.610;1.440;2023-04-24T12:52:39;5.07;;;1.80;;
35634;SDS011;21757;43.610;1.440;2023-04-24T12:55:06;4.70;;;1.20;;
35634;SDS011;21757;43.610;1.440;2023-04-24T12:57:36;6.25;;;1.83;;
35634;SDS011;21757;43.610;1.440;2023-04-24T13:00:03;4.85;;;1.27;;
35634;SDS011;21757;43.610;1.440;2023-04-24T13:02:30;2.03;;;0.82;;
35634;SDS011;21757;43.610;1.440;2023-04-24T13:04:57;8.45;;;5.10;;
35634;SDS011;21757;43.610;1.440;2023-04-24T13:07:23;2.58;;;1.40;;
35634;SDS011;21757;43.610;1.440;2023-04-24T13:09:50;6.05;;;1.98;;
35634;SDS011;21757;43.610;1.440;2023-04-24T13:12:17;5.78;;;1.60;;
35634;SDS011;21757;43.610;1.440;2023-04-24T13:14:43;4.65;;;1.42;;
35634;SDS011;21757;43.610;1.440;2023-04-24T13:17:09;5.88;;;1.55;;
35634;SDS011;21757;43.610;1.440;2023-04-24T13:19:37;4.70;;;1.30;;
35634;SDS011;21757;43.610;1.440;2023-04-24T13:22:04;3.20;;;1.27;;
35634;SDS011;21757;43.610;1.440;2023-04-24T13:24:32;4.05;;;1.65;;
35634;SDS011;21757;43.610;1.440;2023-04-24T13:26:58;4.63;;;1.23;;
35634;SDS011;21757;43.610;1.440;2023-04-24T13:29:24;3.97;;;1.85;;
35634;SDS011;21757;43.610;1.440;2023-04-24T13:31:50;4.05;;;1.33;;
35634;SDS011;21757;43.610;1.440;2023-04-24T13:34:16;4.45;;;1.30;;
35634;SDS011;21757;43.610;1.440;2023-04-24T13:36:42;3.10;;;1.40;;
35634;SDS011;21757;43.610;1.440;2023-04-24T13:39:08;4.90;;;1.38;;
35634;SDS011;21757;43.610;1.440;2023-04-24T13:41:34;4.38;;;1.55;;
35634;SDS011;21757;43.610;1.440;2023-04-24T13:44:01;9.80;;;1.30;;
35634;SDS011;21757;43.610;1.440;2023-04-24T13:46:27;5.30;;;1.30;;
35634;SDS011;21757;43.610;1.440;2023-04-24T13:48:53;5.55;;;1.63;;
35634;SDS011;21757;43.610;1.440;2023-04-24T13:51:19;4.43;;;1.23;;
35634;SDS011;21757;43.610;1.440;2023-04-24T13:53:44;3.70;;;1.08;;
35634;SDS011;21757;43.610;1.440;2023-04-24T13:56:10;4.47;;;1.00;;
35634;SDS011;21757;43.610;1.440;2023-04-24T13:58:37;5.03;;;1.23;;
35634;SDS011;21757;43.610;1.440;2023-04-24T14:01:03;3.22;;;1.30;;
35634;SDS011;21757;43.610;1.440;2023-04-24T14:03:29;4.13;;;1.10;;
35634;SDS011;21757;43.610;1.440;2023-04-24T14:05:55;5.13;;;1.10;;
35634;SDS011;21757;43.610;1.440;2023-04-24T14:08:21;5.65;;;1.15;;
35634;SDS011;21757;43.610;1.440;2023-04-24T14:10:47;4.07;;;1.05;;
35634;SDS011;21757;43.610;1.440;2023-04-24T14:13:12;2.17;;;1.13;;
35634;SDS011;21757;43.610;1.440;2023-04-24T14:15:39;3.17;;;1.17;;
35634;SDS011;21757;43.610;1.440;2023-04-24T14:18:05;2.33;;;0.98;;
35634;SDS011;21757;43.610;1.440;2023-04-24T14:20:31;4.38;;;1.40;;
35634;SDS011;21757;43.610;1.440;2023-04-24T14:22:57;5.60;;;1.23;;
35634;SDS011;21757;43.610;1.440;2023-04-24T14:25:25;5.68;;;1.10;;
35634;SDS011;21757;43.610;1.440;2023-04-24T14:27:51;4.75;;;1.27;;
35634;SDS011;21757;43.610;1.440;2023-04-24T14:30:17;3.25;;;1.10;;
35634;SDS011;21757;43.610;1.440;2023-04-24T14:32:43;4.70;;;1.10;;
35634;SDS011;21757;43.610;1.440;2023-04-24T14:35:09;6.47;;;1.10;;
35634;SDS011;21757;43.610;1.440;2023-04-24T14:37:35;6.28;;;1.40;;
35634;SDS011;21757;43.610;1.440;2023-04-24T14:40:02;4.05;;;1.40;;
35634;SDS011;21757;43.610;1.440;2023-04-24T14:42:29;2.55;;;1.00;;
35634;SDS011;21757;43.610;1.440;2023-04-24T14:44:55;3.67;;;1.05;;
35634;SDS011;21757;43.610;1.440;2023-04-24T14:47:21;2.65;;;1.05;;
35634;SDS011;21757;43.610;1.440;2023-04-24T14:49:47;3.55;;;1.13;;
35634;SDS011;21757;43.610;1.440;2023-04-24T14:52:13;4.03;;;1.23;;
35634;SDS011;21757;43.610;1.440;2023-04-24T14:54:39;2.83;;;0.98;;
35634;SDS011;21757;43.610;1.440;2023-04-24T14:57:05;2.85;;;1.10;;
35634;SDS011;21757;43.610;1.440;2023-04-24T14:59:30;4.35;;;1.17;;
35634;SDS011;21757;43.610;1.440;2023-04-24T15:01:56;3.97;;;1.15;;
35634;SDS011;21757;43.610;1.440;2023-04-24T15:04:26;5.90;;;1.50;;
35634;SDS011;21757;43.610;1.440;2023-04-24T15:06:53;4.38;;;1.48;;
35634;SDS011;21757;43.610;1.440;2023-04-24T15:09:23;5.90;;;1.52;;